JZA152 KLGA-CYHZ
Flight info
| Callsign | JZA152 |
|---|---|
| Flight time | 1h 41m |
| Altitude | 23000 |
| Route | GREKI DCT JUDDS DCT CAM DCT ALLEX FUNDY5 |
| Aircraft | DH8C/M-SDFGR/S |
Departure
| Time | 2026-05-06 18:47 |
|---|---|
| Airport | LaGuardia Airport (KLGA) |
Arrival
| Time | 2026-05-06 20:29 |
|---|---|
| Airport | Halifax / Stanfield International Airport (CYHZ) |
| Time | Latitude | Longitude | Altitude | Speed | Heading |
|---|---|---|---|---|---|
| 2026-05-06 18:16 | 40.76906 | -73.85862 | 10 ft | 0 kts | 130° |
| 2026-05-06 18:31 | 40.76911 | -73.85870 | 11 ft | 7 kts | 130° |
| 2026-05-06 18:31 | 40.76921 | -73.85897 | 12 ft | 7 kts | 97° |
| 2026-05-06 18:31 | 40.76919 | -73.85920 | 12 ft | 0 kts | 35° |
| 2026-05-06 18:33 | 40.76922 | -73.85917 | 11 ft | 3 kts | 34° |
| 2026-05-06 18:33 | 40.76976 | -73.85892 | 9 ft | 13 kts | 8° |
| 2026-05-06 18:34 | 40.77082 | -73.85877 | 11 ft | 11 kts | 11° |
| 2026-05-06 18:34 | 40.77170 | -73.85876 | 13 ft | 16 kts | 317° |
| 2026-05-06 18:34 | 40.77241 | -73.86023 | 14 ft | 22 kts | 300° |
| 2026-05-06 18:34 | 40.77329 | -73.86211 | 15 ft | 27 kts | 303° |
| 2026-05-06 18:35 | 40.77441 | -73.86447 | 12 ft | 33 kts | 304° |
| 2026-05-06 18:35 | 40.77570 | -73.86717 | 10 ft | 36 kts | 303° |
| 2026-05-06 18:35 | 40.77704 | -73.87004 | 14 ft | 37 kts | 303° |
| 2026-05-06 18:35 | 40.77851 | -73.87294 | 17 ft | 38 kts | 302° |
| 2026-05-06 18:36 | 40.77919 | -73.87436 | 17 ft | 0 kts | 303° |
| 2026-05-06 18:39 | 40.77919 | -73.87438 | 17 ft | 1 kts | 303° |
| 2026-05-06 18:39 | 40.77941 | -73.87483 | 17 ft | 11 kts | 302° |
| 2026-05-06 18:39 | 40.77994 | -73.87598 | 15 ft | 18 kts | 300° |
| 2026-05-06 18:40 | 40.78145 | -73.87858 | 14 ft | 0 kts | 344° |
| 2026-05-06 18:45 | 40.78148 | -73.87860 | 15 ft | 3 kts | 344° |
| 2026-05-06 18:45 | 40.78197 | -73.87819 | 16 ft | 15 kts | 84° |
| 2026-05-06 18:46 | 40.78112 | -73.87606 | 14 ft | 58 kts | 129° |
| 2026-05-06 18:46 | 40.77758 | -73.86911 | 15 ft | 120 kts | 119° |
| 2026-05-06 18:46 | 40.77264 | -73.85793 | 86 ft | 157 kts | 124° |
| 2026-05-06 18:46 | 40.76639 | -73.84460 | 201 ft | 177 kts | 123° |
| 2026-05-06 18:47 | 40.75952 | -73.83021 | 288 ft | 192 kts | 125° |
| 2026-05-06 18:47 | 40.75449 | -73.81354 | 457 ft | 205 kts | 101° |
| 2026-05-06 18:47 | 40.75698 | -73.79437 | 637 ft | 224 kts | 68° |
| 2026-05-06 18:47 | 40.76701 | -73.77817 | 847 ft | 233 kts | 38° |
| 2026-05-06 18:48 | 40.78160 | -73.76961 | 1053 ft | 235 kts | 11° |
| 2026-05-06 18:48 | 40.79712 | -73.76267 | 1322 ft | 239 kts | 33° |
| 2026-05-06 18:48 | 40.81033 | -73.74928 | 1576 ft | 240 kts | 36° |
| 2026-05-06 18:48 | 40.82490 | -73.73844 | 1819 ft | 241 kts | 24° |
| 2026-05-06 18:49 | 40.84032 | -73.72947 | 2094 ft | 242 kts | 23° |
| 2026-05-06 18:49 | 40.85559 | -73.71966 | 2363 ft | 244 kts | 25° |
| 2026-05-06 18:49 | 40.87029 | -73.70895 | 2627 ft | 245 kts | 32° |
| 2026-05-06 18:49 | 40.88382 | -73.69513 | 2905 ft | 246 kts | 39° |
| 2026-05-06 18:50 | 40.89702 | -73.68059 | 3181 ft | 247 kts | 39° |
| 2026-05-06 18:50 | 40.91029 | -73.66597 | 3440 ft | 249 kts | 39° |
| 2026-05-06 18:50 | 40.92366 | -73.65123 | 3705 ft | 251 kts | 39° |
| 2026-05-06 18:50 | 40.93716 | -73.63638 | 3970 ft | 253 kts | 39° |
| 2026-05-06 18:51 | 40.95067 | -73.62157 | 4239 ft | 253 kts | 39° |
| 2026-05-06 18:51 | 40.96432 | -73.60672 | 4509 ft | 255 kts | 39° |
| 2026-05-06 18:51 | 40.97798 | -73.59197 | 4769 ft | 257 kts | 39° |
| 2026-05-06 18:51 | 40.99181 | -73.57701 | 5037 ft | 257 kts | 39° |
| 2026-05-06 18:52 | 41.00573 | -73.56188 | 5308 ft | 260 kts | 39° |
| 2026-05-06 18:52 | 41.01998 | -73.54677 | 5571 ft | 264 kts | 31° |
| 2026-05-06 18:52 | 41.03685 | -73.53804 | 5830 ft | 260 kts | 2° |
| 2026-05-06 18:52 | 41.05478 | -73.53577 | 6179 ft | 262 kts | 6° |
| 2026-05-06 18:53 | 41.07227 | -73.52782 | 6526 ft | 269 kts | 24° |
| 2026-05-06 18:53 | 41.08899 | -73.51646 | 6846 ft | 270 kts | 22° |
| 2026-05-06 18:53 | 41.10631 | -73.50702 | 7159 ft | 275 kts | 16° |
| 2026-05-06 18:53 | 41.12473 | -73.49849 | 7536 ft | 278 kts | 16° |
| 2026-05-06 18:54 | 41.14282 | -73.48950 | 7883 ft | 283 kts | 18° |
| 2026-05-06 18:54 | 41.16122 | -73.47973 | 8236 ft | 285 kts | 18° |
| 2026-05-06 18:54 | 41.17964 | -73.47008 | 8580 ft | 284 kts | 17° |
| 2026-05-06 18:54 | 41.19811 | -73.46069 | 8926 ft | 285 kts | 16° |
| 2026-05-06 18:55 | 41.21673 | -73.45116 | 9271 ft | 287 kts | 17° |
| 2026-05-06 18:55 | 41.23535 | -73.44131 | 9623 ft | 289 kts | 16° |
| 2026-05-06 18:55 | 41.25414 | -73.43164 | 9951 ft | 290 kts | 15° |
| 2026-05-06 18:55 | 41.27284 | -73.42203 | 10267 ft | 293 kts | 15° |
| 2026-05-06 18:56 | 41.29181 | -73.41202 | 10583 ft | 292 kts | 16° |
| 2026-05-06 18:56 | 41.31070 | -73.40206 | 10899 ft | 291 kts | 15° |
| 2026-05-06 18:56 | 41.32962 | -73.39233 | 11211 ft | 292 kts | 15° |
| 2026-05-06 18:56 | 41.34865 | -73.38258 | 11530 ft | 293 kts | 15° |
| 2026-05-06 18:57 | 41.36769 | -73.37252 | 11846 ft | 295 kts | 15° |
| 2026-05-06 18:57 | 41.38682 | -73.36254 | 12162 ft | 295 kts | 15° |
| 2026-05-06 18:57 | 41.40605 | -73.35264 | 12484 ft | 297 kts | 15° |
| 2026-05-06 18:57 | 41.42532 | -73.34245 | 12817 ft | 298 kts | 15° |
| 2026-05-06 18:58 | 41.44437 | -73.33244 | 13132 ft | 298 kts | 14° |
| 2026-05-06 18:58 | 41.46378 | -73.32242 | 13426 ft | 301 kts | 15° |
| 2026-05-06 18:58 | 41.48314 | -73.31088 | 13716 ft | 311 kts | 29° |
| 2026-05-06 18:58 | 41.49900 | -73.29092 | 13988 ft | 316 kts | 50° |
| 2026-05-06 18:59 | 41.51299 | -73.26826 | 14240 ft | 316 kts | 46° |
| 2026-05-06 18:59 | 41.52851 | -73.24750 | 14464 ft | 315 kts | 40° |
| 2026-05-06 18:59 | 41.54480 | -73.22774 | 14725 ft | 317 kts | 40° |
| 2026-05-06 18:59 | 41.56056 | -73.20720 | 14999 ft | 318 kts | 44° |
| 2026-05-06 19:00 | 41.57587 | -73.18581 | 15247 ft | 318 kts | 44° |
| 2026-05-06 19:00 | 41.59136 | -73.16518 | 15495 ft | 318 kts | 42° |
| 2026-05-06 19:00 | 41.60719 | -73.14451 | 15753 ft | 319 kts | 41° |
| 2026-05-06 19:00 | 41.61797 | -73.13045 | 15919 ft | 320 kts | 42° |
| 2026-05-06 19:01 | 41.64186 | -73.10870 | 16202 ft | 310 kts | 13° |
| 2026-05-06 19:01 | 41.66237 | -73.10400 | 16420 ft | 290 kts | 348° |
| 2026-05-06 19:01 | 41.68127 | -73.10982 | 16637 ft | 270 kts | 324° |
| 2026-05-06 19:01 | 41.69815 | -73.12036 | 16935 ft | 273 kts | 332° |
| 2026-05-06 19:02 | 41.71742 | -73.12424 | 17242 ft | 288 kts | 350° |
| 2026-05-06 19:02 | 41.73754 | -73.12438 | 17499 ft | 287 kts | 347° |
| 2026-05-06 19:02 | 41.75723 | -73.12747 | 17751 ft | 282 kts | 340° |
| 2026-05-06 19:02 | 41.77634 | -73.13207 | 18013 ft | 283 kts | 340° |
| 2026-05-06 19:03 | 41.79593 | -73.13577 | 18280 ft | 285 kts | 344° |
| 2026-05-06 19:03 | 41.81569 | -73.13856 | 18520 ft | 285 kts | 343° |
| 2026-05-06 19:03 | 41.83541 | -73.14203 | 18763 ft | 287 kts | 342° |
| 2026-05-06 19:03 | 41.85524 | -73.14575 | 19000 ft | 289 kts | 343° |
| 2026-05-06 19:04 | 41.87530 | -73.14896 | 19256 ft | 291 kts | 343° |
| 2026-05-06 19:04 | 41.89540 | -73.15234 | 19505 ft | 290 kts | 342° |
| 2026-05-06 19:04 | 41.91545 | -73.15601 | 19764 ft | 291 kts | 343° |
| 2026-05-06 19:04 | 41.93565 | -73.15929 | 20032 ft | 293 kts | 343° |
| 2026-05-06 19:05 | 41.95584 | -73.16269 | 20294 ft | 293 kts | 345° |
| 2026-05-06 19:05 | 41.97675 | -73.15998 | 20566 ft | 315 kts | 12° |
| 2026-05-06 19:05 | 41.99623 | -73.14516 | 20849 ft | 332 kts | 39° |
| 2026-05-06 19:05 | 42.00999 | -73.12010 | 21138 ft | 337 kts | 68° |
| 2026-05-06 19:06 | 42.01494 | -73.08972 | 21426 ft | 332 kts | 96° |
| 2026-05-06 19:06 | 42.01269 | -73.05950 | 21730 ft | 327 kts | 107° |
| 2026-05-06 19:06 | 42.00837 | -73.02947 | 22031 ft | 328 kts | 109° |
| 2026-05-06 19:06 | 42.00352 | -72.99927 | 22263 ft | 332 kts | 110° |
| 2026-05-06 19:07 | 41.99847 | -72.96862 | 22479 ft | 337 kts | 110° |
| 2026-05-06 19:07 | 41.99507 | -72.94818 | 22625 ft | 340 kts | 110° |
| 2026-05-06 19:07 | 41.98804 | -72.90637 | 22829 ft | 348 kts | 110° |
| 2026-05-06 19:07 | 41.98479 | -72.87350 | 22826 ft | 364 kts | 93° |
| 2026-05-06 19:08 | 41.98918 | -72.83956 | 22844 ft | 376 kts | 72° |
| 2026-05-06 19:08 | 42.00122 | -72.80868 | 22845 ft | 380 kts | 51° |
| 2026-05-06 19:08 | 42.01900 | -72.78230 | 22881 ft | 382 kts | 45° |
| 2026-05-06 19:08 | 42.03490 | -72.75339 | 22897 ft | 388 kts | 62° |
| 2026-05-06 19:09 | 42.04648 | -72.72047 | 22900 ft | 391 kts | 66° |
| 2026-05-06 19:09 | 42.05928 | -72.68804 | 22838 ft | 394 kts | 57° |
| 2026-05-06 19:09 | 42.07505 | -72.65777 | 22849 ft | 394 kts | 53° |
| 2026-05-06 19:09 | 42.09039 | -72.62702 | 22852 ft | 396 kts | 59° |
| 2026-05-06 19:10 | 42.10372 | -72.59513 | 22845 ft | 396 kts | 62° |
| 2026-05-06 19:10 | 42.11283 | -72.57325 | 22812 ft | 396 kts | 60° |
| 2026-05-06 19:10 | 42.12729 | -72.54173 | 22815 ft | 395 kts | 57° |
| 2026-05-06 19:10 | 42.14697 | -72.50046 | 22812 ft | 396 kts | 58° |
| 2026-05-06 19:11 | 42.16132 | -72.46870 | 22809 ft | 396 kts | 59° |
| 2026-05-06 19:11 | 42.17081 | -72.44715 | 22807 ft | 395 kts | 59° |
| 2026-05-06 19:11 | 42.18490 | -72.41578 | 22804 ft | 396 kts | 59° |
| 2026-05-06 19:11 | 42.19925 | -72.38408 | 22803 ft | 396 kts | 59° |
| 2026-05-06 19:12 | 42.21359 | -72.35239 | 22804 ft | 396 kts | 59° |
| 2026-05-06 19:12 | 42.22795 | -72.32063 | 22808 ft | 396 kts | 59° |
| 2026-05-06 19:12 | 42.24229 | -72.28888 | 22809 ft | 396 kts | 59° |
| 2026-05-06 19:12 | 42.25660 | -72.25710 | 22815 ft | 396 kts | 59° |
| 2026-05-06 19:13 | 42.27086 | -72.22528 | 22817 ft | 396 kts | 59° |
| 2026-05-06 19:13 | 42.28515 | -72.19339 | 22843 ft | 396 kts | 59° |
| 2026-05-06 19:13 | 42.29927 | -72.16192 | 22840 ft | 396 kts | 59° |
| 2026-05-06 19:13 | 42.31351 | -72.13004 | 22838 ft | 396 kts | 59° |
| 2026-05-06 19:14 | 42.32773 | -72.09814 | 22838 ft | 396 kts | 59° |
| 2026-05-06 19:14 | 42.34196 | -72.06634 | 22839 ft | 395 kts | 59° |
| 2026-05-06 19:14 | 42.35621 | -72.03450 | 22841 ft | 395 kts | 59° |
| 2026-05-06 19:14 | 42.37039 | -72.00257 | 22843 ft | 395 kts | 59° |
| 2026-05-06 19:15 | 42.38459 | -71.97063 | 22845 ft | 395 kts | 59° |
| 2026-05-06 19:15 | 42.39879 | -71.93880 | 22846 ft | 395 kts | 59° |
| 2026-05-06 19:15 | 42.41275 | -71.90730 | 22844 ft | 395 kts | 59° |
| 2026-05-06 19:15 | 42.42688 | -71.87531 | 22837 ft | 395 kts | 59° |
| 2026-05-06 19:16 | 42.44100 | -71.84341 | 22812 ft | 395 kts | 59° |
| 2026-05-06 19:16 | 42.45519 | -71.81151 | 22807 ft | 395 kts | 59° |
| 2026-05-06 19:16 | 42.46938 | -71.77956 | 22802 ft | 395 kts | 59° |
| 2026-05-06 19:16 | 42.48343 | -71.74752 | 22796 ft | 396 kts | 60° |
| 2026-05-06 19:17 | 42.49755 | -71.71553 | 22804 ft | 396 kts | 59° |
| 2026-05-06 19:17 | 42.51178 | -71.68351 | 22799 ft | 396 kts | 59° |
| 2026-05-06 19:17 | 42.52584 | -71.65136 | 22798 ft | 396 kts | 60° |
| 2026-05-06 19:17 | 42.53990 | -71.61925 | 22799 ft | 397 kts | 59° |
| 2026-05-06 19:18 | 42.55412 | -71.58711 | 22798 ft | 397 kts | 59° |
| 2026-05-06 19:18 | 42.56807 | -71.55536 | 22800 ft | 397 kts | 60° |
| 2026-05-06 19:18 | 42.58213 | -71.52302 | 22799 ft | 398 kts | 59° |
| 2026-05-06 19:18 | 42.59631 | -71.49080 | 22799 ft | 398 kts | 59° |
| 2026-05-06 19:19 | 42.61050 | -71.45851 | 22801 ft | 398 kts | 60° |
| 2026-05-06 19:19 | 42.62455 | -71.42605 | 22796 ft | 398 kts | 60° |
| 2026-05-06 19:19 | 42.63869 | -71.39362 | 22797 ft | 399 kts | 59° |
| 2026-05-06 19:19 | 42.65292 | -71.36125 | 22793 ft | 399 kts | 60° |
| 2026-05-06 19:20 | 42.66705 | -71.32880 | 22815 ft | 399 kts | 60° |
| 2026-05-06 19:20 | 42.68106 | -71.29629 | 22823 ft | 399 kts | 60° |
| 2026-05-06 19:20 | 42.69522 | -71.26382 | 22825 ft | 399 kts | 60° |
| 2026-05-06 19:20 | 42.70925 | -71.23171 | 22820 ft | 399 kts | 60° |
| 2026-05-06 19:21 | 42.72332 | -71.19909 | 22808 ft | 400 kts | 60° |
| 2026-05-06 19:21 | 42.73742 | -71.16648 | 22811 ft | 400 kts | 60° |
| 2026-05-06 19:21 | 42.75162 | -71.13389 | 22817 ft | 400 kts | 60° |
| 2026-05-06 19:21 | 42.76566 | -71.10126 | 22821 ft | 400 kts | 61° |
| 2026-05-06 19:22 | 42.77974 | -71.06847 | 22824 ft | 400 kts | 60° |
| 2026-05-06 19:22 | 42.79393 | -71.03581 | 22826 ft | 400 kts | 60° |
| 2026-05-06 19:22 | 42.80779 | -71.00368 | 22825 ft | 400 kts | 61° |
| 2026-05-06 19:22 | 42.82175 | -70.97080 | 22825 ft | 400 kts | 61° |
| 2026-05-06 19:23 | 42.83580 | -70.93806 | 22819 ft | 400 kts | 60° |
| 2026-05-06 19:23 | 42.84997 | -70.90536 | 22817 ft | 400 kts | 60° |
| 2026-05-06 19:23 | 42.86408 | -70.87269 | 22797 ft | 399 kts | 61° |
| 2026-05-06 19:23 | 42.87793 | -70.84002 | 22795 ft | 398 kts | 61° |
| 2026-05-06 19:24 | 42.89189 | -70.80740 | 22788 ft | 398 kts | 61° |
| 2026-05-06 19:24 | 42.90595 | -70.77476 | 22793 ft | 398 kts | 61° |
| 2026-05-06 19:24 | 42.91981 | -70.74204 | 22797 ft | 398 kts | 62° |
| 2026-05-06 19:24 | 42.93371 | -70.70940 | 22805 ft | 398 kts | 61° |
| 2026-05-06 19:25 | 42.94772 | -70.67679 | 22798 ft | 398 kts | 61° |
| 2026-05-06 19:25 | 42.96155 | -70.64406 | 22799 ft | 397 kts | 62° |
| 2026-05-06 19:25 | 42.97519 | -70.61183 | 22802 ft | 398 kts | 62° |
| 2026-05-06 19:25 | 42.98915 | -70.57919 | 22790 ft | 397 kts | 61° |
| 2026-05-06 19:26 | 43.00305 | -70.54651 | 22788 ft | 398 kts | 62° |
| 2026-05-06 19:26 | 43.01682 | -70.51367 | 22800 ft | 398 kts | 62° |
| 2026-05-06 19:26 | 43.03075 | -70.48093 | 22796 ft | 398 kts | 61° |
| 2026-05-06 19:26 | 43.04464 | -70.44818 | 22808 ft | 398 kts | 62° |
| 2026-05-06 19:27 | 43.05835 | -70.41535 | 22801 ft | 398 kts | 62° |
| 2026-05-06 19:27 | 43.07225 | -70.38252 | 22806 ft | 398 kts | 62° |
| 2026-05-06 19:27 | 43.08613 | -70.34970 | 22808 ft | 398 kts | 62° |
| 2026-05-06 19:27 | 43.09968 | -70.31726 | 22808 ft | 398 kts | 62° |
| 2026-05-06 19:28 | 43.11353 | -70.28441 | 22804 ft | 398 kts | 62° |
| 2026-05-06 19:28 | 43.12735 | -70.25159 | 22809 ft | 398 kts | 62° |
| 2026-05-06 19:28 | 43.14107 | -70.21865 | 22803 ft | 398 kts | 62° |
| 2026-05-06 19:28 | 43.15485 | -70.18584 | 22807 ft | 398 kts | 62° |
| 2026-05-06 19:29 | 43.16865 | -70.15297 | 22813 ft | 398 kts | 62° |
| 2026-05-06 19:29 | 43.18234 | -70.11997 | 22816 ft | 398 kts | 62° |
| 2026-05-06 19:29 | 43.19609 | -70.08714 | 22813 ft | 398 kts | 62° |
| 2026-05-06 19:29 | 43.20984 | -70.05424 | 22816 ft | 397 kts | 63° |
| 2026-05-06 19:30 | 43.22349 | -70.02127 | 22823 ft | 397 kts | 62° |
| 2026-05-06 19:30 | 43.23724 | -69.98833 | 22826 ft | 398 kts | 62° |
| 2026-05-06 19:30 | 43.25077 | -69.95579 | 22825 ft | 397 kts | 63° |
| 2026-05-06 19:30 | 43.26439 | -69.92285 | 22821 ft | 397 kts | 63° |
| 2026-05-06 19:31 | 43.27800 | -69.89008 | 22829 ft | 396 kts | 63° |
| 2026-05-06 19:31 | 43.29164 | -69.85719 | 22829 ft | 396 kts | 63° |
| 2026-05-06 19:31 | 43.31880 | -69.79143 | 22825 ft | 396 kts | 63° |
| 2026-05-06 19:32 | 43.33237 | -69.75854 | 22835 ft | 395 kts | 63° |
| 2026-05-06 19:32 | 43.34591 | -69.72577 | 22837 ft | 394 kts | 63° |
| 2026-05-06 19:32 | 43.35937 | -69.69300 | 22841 ft | 393 kts | 63° |
| 2026-05-06 19:32 | 43.37280 | -69.66024 | 22825 ft | 393 kts | 63° |
| 2026-05-06 19:33 | 43.38630 | -69.62755 | 22847 ft | 393 kts | 63° |
| 2026-05-06 19:33 | 43.39971 | -69.59484 | 22840 ft | 392 kts | 63° |
| 2026-05-06 19:33 | 43.41309 | -69.56211 | 22839 ft | 392 kts | 63° |
| 2026-05-06 19:33 | 43.42648 | -69.52949 | 22841 ft | 391 kts | 63° |
| 2026-05-06 19:34 | 43.43970 | -69.49726 | 22845 ft | 391 kts | 63° |
| 2026-05-06 19:34 | 43.45284 | -69.46464 | 22856 ft | 389 kts | 63° |
| 2026-05-06 19:34 | 43.46610 | -69.43231 | 22846 ft | 388 kts | 62° |
| 2026-05-06 19:34 | 43.47938 | -69.40004 | 22854 ft | 388 kts | 64° |
| 2026-05-06 19:35 | 43.49233 | -69.36747 | 22850 ft | 386 kts | 63° |
| 2026-05-06 19:35 | 43.50557 | -69.33523 | 22846 ft | 387 kts | 62° |
| 2026-05-06 19:35 | 43.51880 | -69.30308 | 22858 ft | 383 kts | 63° |
| 2026-05-06 19:35 | 43.53185 | -69.27073 | 22862 ft | 386 kts | 63° |
| 2026-05-06 19:36 | 43.54474 | -69.23873 | 22858 ft | 385 kts | 63° |
| 2026-05-06 19:36 | 43.55790 | -69.20668 | 22856 ft | 384 kts | 63° |
| 2026-05-06 19:36 | 43.57086 | -69.17442 | 22850 ft | 386 kts | 64° |
| 2026-05-06 19:36 | 43.58379 | -69.14189 | 22866 ft | 389 kts | 63° |
| 2026-05-06 19:37 | 43.59702 | -69.10939 | 22854 ft | 388 kts | 63° |
| 2026-05-06 19:37 | 43.61022 | -69.07701 | 22854 ft | 386 kts | 63° |
| 2026-05-06 19:37 | 43.62311 | -69.04458 | 22861 ft | 385 kts | 64° |
| 2026-05-06 19:37 | 43.63614 | -69.01224 | 22848 ft | 384 kts | 63° |
| 2026-05-06 19:38 | 43.64920 | -68.98009 | 22858 ft | 383 kts | 63° |
| 2026-05-06 19:38 | 43.66195 | -68.94786 | 22853 ft | 382 kts | 64° |
| 2026-05-06 19:38 | 43.67484 | -68.91575 | 22856 ft | 382 kts | 63° |
| 2026-05-06 19:38 | 43.68781 | -68.88374 | 22861 ft | 381 kts | 63° |
| 2026-05-06 19:39 | 43.70051 | -68.85152 | 22855 ft | 381 kts | 64° |
| 2026-05-06 19:39 | 43.71331 | -68.81951 | 22853 ft | 380 kts | 63° |
| 2026-05-06 19:39 | 43.72605 | -68.78802 | 22857 ft | 379 kts | 64° |
| 2026-05-06 19:39 | 43.73860 | -68.75595 | 22862 ft | 379 kts | 64° |
| 2026-05-06 19:40 | 43.75130 | -68.72410 | 22861 ft | 378 kts | 63° |
| 2026-05-06 19:40 | 43.76414 | -68.69236 | 22864 ft | 378 kts | 64° |
| 2026-05-06 19:40 | 43.77661 | -68.66042 | 22865 ft | 377 kts | 64° |
| 2026-05-06 19:40 | 43.78920 | -68.62857 | 22857 ft | 378 kts | 63° |
| 2026-05-06 19:41 | 43.80200 | -68.59686 | 22867 ft | 377 kts | 64° |
| 2026-05-06 19:41 | 43.81449 | -68.56494 | 22861 ft | 376 kts | 65° |
| 2026-05-06 19:41 | 43.82698 | -68.53305 | 22869 ft | 376 kts | 63° |
| 2026-05-06 19:41 | 43.83974 | -68.50132 | 22866 ft | 376 kts | 64° |
| 2026-05-06 19:42 | 43.85219 | -68.46950 | 22875 ft | 375 kts | 65° |
| 2026-05-06 19:42 | 43.86454 | -68.43777 | 22870 ft | 375 kts | 64° |
| 2026-05-06 19:42 | 43.87699 | -68.40663 | 22870 ft | 374 kts | 64° |
| 2026-05-06 19:42 | 43.88945 | -68.37491 | 22877 ft | 374 kts | 65° |
| 2026-05-06 19:43 | 43.90173 | -68.34317 | 22871 ft | 373 kts | 64° |
| 2026-05-06 19:43 | 43.91426 | -68.31171 | 22880 ft | 372 kts | 64° |
| 2026-05-06 19:43 | 43.92659 | -68.28024 | 22874 ft | 371 kts | 65° |
| 2026-05-06 19:43 | 43.93881 | -68.24863 | 22872 ft | 371 kts | 64° |
| 2026-05-06 19:44 | 43.95121 | -68.21726 | 22880 ft | 371 kts | 64° |
| 2026-05-06 19:44 | 43.96351 | -68.18570 | 22891 ft | 374 kts | 65° |
| 2026-05-06 19:44 | 43.97566 | -68.15433 | 22873 ft | 372 kts | 64° |
| 2026-05-06 19:44 | 43.98812 | -68.12285 | 22892 ft | 372 kts | 64° |
| 2026-05-06 19:45 | 44.00036 | -68.09115 | 22894 ft | 374 kts | 65° |
| 2026-05-06 19:45 | 44.01253 | -68.05940 | 22887 ft | 373 kts | 65° |
| 2026-05-06 19:45 | 44.02491 | -68.02773 | 22897 ft | 372 kts | 65° |
| 2026-05-06 19:45 | 44.03725 | -67.99621 | 22899 ft | 371 kts | 64° |
| 2026-05-06 19:46 | 44.04948 | -67.96458 | 22897 ft | 371 kts | 66° |
| 2026-05-06 19:46 | 44.06155 | -67.93267 | 22884 ft | 372 kts | 64° |
| 2026-05-06 19:46 | 44.07409 | -67.90131 | 22905 ft | 371 kts | 65° |
| 2026-05-06 19:46 | 44.08614 | -67.86987 | 22895 ft | 367 kts | 67° |
| 2026-05-06 19:47 | 44.09786 | -67.83831 | 22881 ft | 367 kts | 65° |
| 2026-05-06 19:47 | 44.11000 | -67.80721 | 22889 ft | 366 kts | 64° |
| 2026-05-06 19:47 | 44.12229 | -67.77624 | 22890 ft | 366 kts | 65° |
| 2026-05-06 19:47 | 44.13415 | -67.74497 | 22885 ft | 365 kts | 66° |
| 2026-05-06 19:48 | 44.14577 | -67.71419 | 22895 ft | 364 kts | 65° |
| 2026-05-06 19:48 | 44.15796 | -67.68322 | 22894 ft | 364 kts | 65° |
| 2026-05-06 19:48 | 44.16979 | -67.65211 | 22900 ft | 363 kts | 66° |
| 2026-05-06 19:48 | 44.18148 | -67.62101 | 22888 ft | 363 kts | 65° |
| 2026-05-06 19:49 | 44.19357 | -67.59018 | 22903 ft | 362 kts | 65° |
| 2026-05-06 19:49 | 44.20533 | -67.55914 | 22905 ft | 361 kts | 67° |
| 2026-05-06 19:49 | 44.21696 | -67.52808 | 22900 ft | 362 kts | 66° |
| 2026-05-06 19:49 | 44.22899 | -67.49723 | 22899 ft | 362 kts | 65° |
| 2026-05-06 19:50 | 44.24074 | -67.46624 | 22898 ft | 361 kts | 67° |
| 2026-05-06 19:50 | 44.25231 | -67.43518 | 22893 ft | 361 kts | 66° |
| 2026-05-06 19:50 | 44.26431 | -67.40431 | 22904 ft | 361 kts | 65° |
| 2026-05-06 19:50 | 44.27603 | -67.37329 | 22911 ft | 360 kts | 67° |
| 2026-05-06 19:51 | 44.28741 | -67.34263 | 22914 ft | 361 kts | 66° |
| 2026-05-06 19:51 | 44.29934 | -67.31178 | 22919 ft | 361 kts | 66° |
| 2026-05-06 19:51 | 44.31104 | -67.28084 | 22908 ft | 358 kts | 67° |
| 2026-05-06 19:51 | 44.32244 | -67.24989 | 22909 ft | 359 kts | 66° |
| 2026-05-06 19:52 | 44.33422 | -67.21913 | 22915 ft | 359 kts | 65° |
| 2026-05-06 19:52 | 44.34599 | -67.18839 | 22926 ft | 359 kts | 67° |
| 2026-05-06 19:52 | 44.35739 | -67.15746 | 22916 ft | 358 kts | 68° |
| 2026-05-06 19:52 | 44.36896 | -67.12657 | 22923 ft | 359 kts | 66° |
| 2026-05-06 19:53 | 44.38081 | -67.09592 | 22927 ft | 357 kts | 66° |
| 2026-05-06 19:53 | 44.39215 | -67.06504 | 22924 ft | 356 kts | 68° |
| 2026-05-06 19:53 | 44.40330 | -67.03459 | 22929 ft | 357 kts | 66° |
| 2026-05-06 19:53 | 44.41517 | -67.00389 | 22927 ft | 359 kts | 67° |
| 2026-05-06 19:54 | 44.42340 | -66.97153 | 22951 ft | 349 kts | 86° |
| 2026-05-06 19:54 | 44.42711 | -66.93807 | 22939 ft | 348 kts | 89° |
| 2026-05-06 19:54 | 44.43176 | -66.90467 | 22929 ft | 353 kts | 83° |
| 2026-05-06 19:54 | 44.43844 | -66.87150 | 22937 ft | 354 kts | 80° |
| 2026-05-06 19:55 | 44.44493 | -66.83820 | 22953 ft | 353 kts | 84° |
| 2026-05-06 19:55 | 44.45006 | -66.80465 | 22951 ft | 352 kts | 85° |
| 2026-05-06 19:55 | 44.45552 | -66.77111 | 22952 ft | 354 kts | 83° |
| 2026-05-06 19:55 | 44.46148 | -66.73800 | 22957 ft | 356 kts | 82° |
| 2026-05-06 19:56 | 44.46757 | -66.70450 | 22956 ft | 356 kts | 83° |
| 2026-05-06 19:56 | 44.47305 | -66.67080 | 22950 ft | 356 kts | 85° |
| 2026-05-06 19:56 | 44.47867 | -66.63693 | 22949 ft | 357 kts | 83° |
| 2026-05-06 19:56 | 44.48471 | -66.60307 | 22956 ft | 358 kts | 83° |
| 2026-05-06 19:57 | 44.49043 | -66.56912 | 22962 ft | 358 kts | 84° |
| 2026-05-06 19:57 | 44.49596 | -66.53508 | 22963 ft | 359 kts | 83° |
| 2026-05-06 19:57 | 44.50193 | -66.50100 | 22966 ft | 361 kts | 83° |
| 2026-05-06 19:57 | 44.50773 | -66.46680 | 22966 ft | 361 kts | 84° |
| 2026-05-06 19:58 | 44.51326 | -66.43246 | 22962 ft | 362 kts | 83° |
| 2026-05-06 19:58 | 44.51920 | -66.39814 | 22965 ft | 363 kts | 83° |
| 2026-05-06 19:58 | 44.52505 | -66.36366 | 22967 ft | 363 kts | 84° |
| 2026-05-06 19:58 | 44.53061 | -66.32909 | 22966 ft | 364 kts | 84° |
| 2026-05-06 19:59 | 44.53647 | -66.29450 | 22972 ft | 365 kts | 83° |
| 2026-05-06 19:59 | 44.54238 | -66.25976 | 22975 ft | 365 kts | 83° |
| 2026-05-06 19:59 | 44.54916 | -66.22627 | 22964 ft | 350 kts | 77° |
| 2026-05-06 19:59 | 44.55627 | -66.19448 | 22924 ft | 333 kts | 80° |
| 2026-05-06 20:00 | 44.56125 | -66.16394 | 22908 ft | 318 kts | 85° |
| 2026-05-06 20:00 | 44.56563 | -66.13409 | 22874 ft | 309 kts | 83° |
| 2026-05-06 20:00 | 44.57051 | -66.10493 | 22801 ft | 310 kts | 88° |
| 2026-05-06 20:00 | 44.57309 | -66.07438 | 22805 ft | 320 kts | 92° |
| 2026-05-06 20:01 | 44.57673 | -66.04290 | 22875 ft | 334 kts | 83° |
| 2026-05-06 20:01 | 44.58301 | -66.01099 | 22974 ft | 343 kts | 80° |
| 2026-05-06 20:01 | 44.58921 | -65.97836 | 22993 ft | 350 kts | 84° |
| 2026-05-06 20:01 | 44.59400 | -65.94460 | 22996 ft | 355 kts | 86° |
| 2026-05-06 20:02 | 44.59911 | -65.91076 | 23004 ft | 362 kts | 83° |
| 2026-05-06 20:02 | 44.60502 | -65.87609 | 23004 ft | 367 kts | 82° |
| 2026-05-06 20:02 | 44.61103 | -65.84104 | 23003 ft | 371 kts | 83° |
| 2026-05-06 20:02 | 44.61686 | -65.80562 | 23011 ft | 373 kts | 84° |
| 2026-05-06 20:03 | 44.62242 | -65.76987 | 23004 ft | 376 kts | 83° |
| 2026-05-06 20:03 | 44.62822 | -65.73389 | 23010 ft | 379 kts | 83° |
| 2026-05-06 20:03 | 44.63414 | -65.69778 | 23003 ft | 380 kts | 83° |
| 2026-05-06 20:03 | 44.64005 | -65.66149 | 23008 ft | 382 kts | 83° |
| 2026-05-06 20:04 | 44.64386 | -65.63735 | 23010 ft | 383 kts | 84° |
| 2026-05-06 20:04 | 44.65154 | -65.58874 | 23006 ft | 385 kts | 83° |
| 2026-05-06 20:04 | 44.65747 | -65.55207 | 23007 ft | 385 kts | 83° |
| 2026-05-06 20:04 | 44.66151 | -65.52726 | 23001 ft | 385 kts | 83° |
| 2026-05-06 20:05 | 44.66722 | -65.49099 | 22999 ft | 384 kts | 84° |
| 2026-05-06 20:05 | 44.67296 | -65.45433 | 23000 ft | 385 kts | 83° |
| 2026-05-06 20:05 | 44.67886 | -65.41758 | 23004 ft | 385 kts | 83° |
| 2026-05-06 20:05 | 44.68656 | -65.36897 | 23004 ft | 385 kts | 83° |
| 2026-05-06 20:06 | 44.69041 | -65.34417 | 23002 ft | 385 kts | 83° |
| 2026-05-06 20:06 | 44.69624 | -65.30737 | 23006 ft | 385 kts | 83° |
| 2026-05-06 20:06 | 44.70205 | -65.27069 | 23001 ft | 385 kts | 83° |
| 2026-05-06 20:06 | 44.70774 | -65.23394 | 22999 ft | 384 kts | 83° |
| 2026-05-06 20:07 | 44.71339 | -65.19762 | 22869 ft | 386 kts | 83° |
| 2026-05-06 20:07 | 44.71915 | -65.16089 | 22620 ft | 383 kts | 83° |
| 2026-05-06 20:07 | 44.72482 | -65.12424 | 22375 ft | 383 kts | 84° |
| 2026-05-06 20:07 | 44.73049 | -65.08772 | 22129 ft | 382 kts | 84° |
| 2026-05-06 20:08 | 44.73616 | -65.05119 | 21889 ft | 382 kts | 84° |
| 2026-05-06 20:08 | 44.74180 | -65.01466 | 21648 ft | 381 kts | 84° |
| 2026-05-06 20:08 | 44.74737 | -64.97834 | 21410 ft | 380 kts | 84° |
| 2026-05-06 20:08 | 44.75296 | -64.94196 | 21168 ft | 379 kts | 84° |
| 2026-05-06 20:09 | 44.75849 | -64.90571 | 20916 ft | 379 kts | 84° |
| 2026-05-06 20:09 | 44.76399 | -64.86954 | 20661 ft | 378 kts | 84° |
| 2026-05-06 20:09 | 44.76948 | -64.83327 | 20402 ft | 378 kts | 84° |
| 2026-05-06 20:09 | 44.77493 | -64.79729 | 20150 ft | 371 kts | 84° |
| 2026-05-06 20:10 | 44.78023 | -64.76217 | 19874 ft | 362 kts | 84° |
| 2026-05-06 20:10 | 44.78546 | -64.72782 | 19595 ft | 356 kts | 84° |
| 2026-05-06 20:10 | 44.79064 | -64.69403 | 19266 ft | 352 kts | 84° |
| 2026-05-06 20:10 | 44.79572 | -64.66094 | 18929 ft | 348 kts | 84° |
| 2026-05-06 20:11 | 44.80081 | -64.62787 | 18582 ft | 344 kts | 85° |
| 2026-05-06 20:11 | 44.80579 | -64.59511 | 18238 ft | 340 kts | 85° |
| 2026-05-06 20:11 | 44.81061 | -64.56270 | 17826 ft | 337 kts | 85° |
| 2026-05-06 20:11 | 44.81539 | -64.53062 | 17404 ft | 332 kts | 84° |
| 2026-05-06 20:12 | 44.82019 | -64.49911 | 16981 ft | 327 kts | 84° |
| 2026-05-06 20:12 | 44.82483 | -64.46788 | 16564 ft | 322 kts | 85° |
| 2026-05-06 20:12 | 44.82939 | -64.43709 | 16143 ft | 320 kts | 84° |
| 2026-05-06 20:12 | 44.83398 | -64.40656 | 15738 ft | 317 kts | 84° |
| 2026-05-06 20:13 | 44.83844 | -64.37638 | 15332 ft | 312 kts | 84° |
| 2026-05-06 20:13 | 44.84284 | -64.34674 | 14981 ft | 306 kts | 84° |
| 2026-05-06 20:13 | 44.84719 | -64.31771 | 14639 ft | 300 kts | 84° |
| 2026-05-06 20:13 | 44.85138 | -64.28914 | 14297 ft | 296 kts | 83° |
| 2026-05-06 20:14 | 44.85554 | -64.26087 | 13956 ft | 293 kts | 83° |
| 2026-05-06 20:14 | 44.85963 | -64.23327 | 13599 ft | 290 kts | 83° |
| 2026-05-06 20:14 | 44.86367 | -64.20552 | 13199 ft | 288 kts | 84° |
| 2026-05-06 20:14 | 44.86783 | -64.17795 | 12757 ft | 285 kts | 83° |
| 2026-05-06 20:15 | 44.87225 | -64.15094 | 12309 ft | 280 kts | 83° |
| 2026-05-06 20:15 | 44.87638 | -64.12437 | 11857 ft | 275 kts | 84° |
| 2026-05-06 20:15 | 44.88034 | -64.09819 | 11415 ft | 271 kts | 84° |
| 2026-05-06 20:15 | 44.88449 | -64.07235 | 10974 ft | 268 kts | 84° |
| 2026-05-06 20:16 | 44.88839 | -64.04707 | 10540 ft | 265 kts | 85° |
| 2026-05-06 20:16 | 44.89228 | -64.02140 | 10099 ft | 263 kts | 85° |
| 2026-05-06 20:16 | 44.89623 | -63.99654 | 9642 ft | 263 kts | 85° |
| 2026-05-06 20:16 | 44.90014 | -63.97141 | 9186 ft | 261 kts | 85° |
| 2026-05-06 20:17 | 44.90386 | -63.94641 | 8738 ft | 259 kts | 86° |
| 2026-05-06 20:17 | 44.90775 | -63.92161 | 8304 ft | 258 kts | 85° |
| 2026-05-06 20:17 | 44.91160 | -63.89704 | 7876 ft | 255 kts | 86° |
| 2026-05-06 20:17 | 44.91520 | -63.87261 | 7463 ft | 252 kts | 87° |
| 2026-05-06 20:18 | 44.91896 | -63.84859 | 7042 ft | 249 kts | 86° |
| 2026-05-06 20:18 | 44.92264 | -63.82480 | 6631 ft | 247 kts | 88° |
| 2026-05-06 20:18 | 44.92614 | -63.80144 | 6216 ft | 245 kts | 88° |
| 2026-05-06 20:18 | 44.92976 | -63.77807 | 5779 ft | 243 kts | 88° |
| 2026-05-06 20:19 | 44.93330 | -63.75498 | 5366 ft | 240 kts | 89° |
| 2026-05-06 20:19 | 44.93674 | -63.73208 | 5056 ft | 234 kts | 88° |
| 2026-05-06 20:19 | 44.94019 | -63.71032 | 4968 ft | 220 kts | 89° |
| 2026-05-06 20:19 | 44.94331 | -63.68962 | 4946 ft | 214 kts | 89° |
| 2026-05-06 20:20 | 44.94642 | -63.66896 | 4950 ft | 217 kts | 89° |
| 2026-05-06 20:20 | 44.94962 | -63.64798 | 4962 ft | 219 kts | 89° |
| 2026-05-06 20:20 | 44.95279 | -63.62688 | 4966 ft | 220 kts | 89° |
| 2026-05-06 20:20 | 44.95601 | -63.60584 | 4973 ft | 219 kts | 90° |
| 2026-05-06 20:21 | 44.95918 | -63.58500 | 4969 ft | 223 kts | 84° |
| 2026-05-06 20:21 | 44.96707 | -63.56537 | 4951 ft | 239 kts | 48° |
| 2026-05-06 20:21 | 44.98138 | -63.55267 | 4785 ft | 250 kts | 22° |
| 2026-05-06 20:21 | 44.99738 | -63.54197 | 4618 ft | 257 kts | 32° |
| 2026-05-06 20:22 | 45.01188 | -63.52701 | 4461 ft | 259 kts | 43° |
| 2026-05-06 20:22 | 45.02604 | -63.51094 | 4298 ft | 262 kts | 39° |
| 2026-05-06 20:22 | 45.04090 | -63.49633 | 4143 ft | 264 kts | 36° |
| 2026-05-06 20:22 | 45.05519 | -63.48009 | 3943 ft | 263 kts | 56° |
| 2026-05-06 20:23 | 45.06261 | -63.45763 | 3749 ft | 246 kts | 92° |
| 2026-05-06 20:23 | 45.06084 | -63.43517 | 3564 ft | 218 kts | 128° |
| 2026-05-06 20:23 | 45.05235 | -63.41899 | 3366 ft | 199 kts | 148° |
| 2026-05-06 20:23 | 45.04254 | -63.40543 | 3150 ft | 196 kts | 148° |
| 2026-05-06 20:24 | 45.03227 | -63.39426 | 3089 ft | 174 kts | 167° |
| 2026-05-06 20:24 | 45.02132 | -63.38963 | 3054 ft | 157 kts | 183° |
| 2026-05-06 20:24 | 45.01083 | -63.38979 | 3019 ft | 146 kts | 197° |
| 2026-05-06 20:24 | 45.00155 | -63.39385 | 2976 ft | 138 kts | 209° |
| 2026-05-06 20:25 | 44.99355 | -63.40099 | 2977 ft | 134 kts | 218° |
| 2026-05-06 20:25 | 44.98591 | -63.40845 | 2972 ft | 132 kts | 213° |
| 2026-05-06 20:25 | 44.97842 | -63.41565 | 2970 ft | 129 kts | 216° |
| 2026-05-06 20:25 | 44.97114 | -63.42305 | 2971 ft | 128 kts | 215° |
| 2026-05-06 20:26 | 44.96377 | -63.43022 | 2973 ft | 129 kts | 216° |
| 2026-05-06 20:26 | 44.95647 | -63.43753 | 2976 ft | 129 kts | 216° |
| 2026-05-06 20:26 | 44.94913 | -63.44474 | 2976 ft | 128 kts | 216° |
| 2026-05-06 20:26 | 44.94194 | -63.45224 | 2945 ft | 130 kts | 218° |
| 2026-05-06 20:27 | 44.93449 | -63.46026 | 2787 ft | 135 kts | 221° |
| 2026-05-06 20:27 | 44.92749 | -63.46781 | 2793 ft | 124 kts | 217° |
| 2026-05-06 20:27 | 44.92002 | -63.47500 | 2341 ft | 141 kts | 217° |
| 2026-05-06 20:27 | 44.91169 | -63.48321 | 1969 ft | 149 kts | 216° |
| 2026-05-06 20:28 | 44.90294 | -63.49154 | 1327 ft | 153 kts | 214° |
| 2026-05-06 20:28 | 44.89392 | -63.49994 | 844 ft | 155 kts | 208° |
| 2026-05-06 20:28 | 44.88519 | -63.50834 | 485 ft | 143 kts | 211° |
| 2026-05-06 20:28 | 44.87811 | -63.51512 | 453 ft | 70 kts | 211° |
| 2026-05-06 20:29 | 44.87593 | -63.51717 | 453 ft | 31 kts | 209° |
| 2026-05-06 20:29 | 44.87456 | -63.51903 | 451 ft | 26 kts | 249° |
| 2026-05-06 20:29 | 44.87492 | -63.52120 | 453 ft | 25 kts | 346° |
| 2026-05-06 20:29 | 44.87644 | -63.52000 | 452 ft | 28 kts | 37° |
| 2026-05-06 20:30 | 44.87807 | -63.51824 | 452 ft | 31 kts | 37° |
| 2026-05-06 20:30 | 44.88193 | -63.51446 | 451 ft | 36 kts | 36° |
| 2026-05-06 20:30 | 44.88361 | -63.51403 | 451 ft | 18 kts | 303° |
| 2026-05-06 20:31 | 44.88385 | -63.51453 | 451 ft | 0 kts | 304° |